createdAt,value
2024-03-28T00:02:00.948Z,97844.63
2024-03-28T00:04:27.534Z,97843.53
2024-03-28T00:06:54.548Z,97847.44
2024-03-28T00:09:21.402Z,97854.28
2024-03-28T00:11:47.570Z,97834.38
2024-03-28T00:14:14.213Z,97824.16
2024-03-28T00:16:40.167Z,97838.28
2024-03-28T00:19:08.242Z,97849.59
2024-03-28T00:21:35.375Z,97847.00
2024-03-28T00:24:01.467Z,97837.59
2024-03-28T00:26:28.370Z,97831.28
2024-03-28T00:28:54.773Z,97849.03
2024-03-28T00:31:20.922Z,97835.97
2024-03-28T00:33:47.073Z,97834.31
2024-03-28T00:36:13.536Z,97837.84
2024-03-28T00:38:39.868Z,97826.38
2024-03-28T00:41:05.987Z,97827.75
2024-03-28T00:43:33.167Z,97819.31
2024-03-28T00:46:00.623Z,97817.56
2024-03-28T00:48:26.843Z,97809.91
2024-03-28T00:50:54.186Z,97806.63
2024-03-28T00:53:20.430Z,97790.66
2024-03-28T00:55:47.245Z,97805.69
2024-03-28T00:58:13.912Z,97815.06
2024-03-28T01:00:41.201Z,97817.66
2024-03-28T01:03:07.488Z,97812.75
2024-03-28T01:05:34.296Z,97802.66
2024-03-28T01:08:00.507Z,97787.97
2024-03-28T01:10:26.664Z,97775.41
2024-03-28T01:12:53.155Z,97780.56
2024-03-28T01:15:19.304Z,97775.66
2024-03-28T01:17:46.347Z,97776.72
2024-03-28T01:20:12.842Z,97785.44
2024-03-28T01:22:39.052Z,97780.25
2024-03-28T01:25:06.496Z,97787.19
2024-03-28T01:27:32.977Z,97782.97
2024-03-28T01:29:59.150Z,97783.78
2024-03-28T01:32:26.020Z,97777.22
2024-03-28T01:34:53.259Z,97774.75
2024-03-28T01:37:19.749Z,97776.41
2024-03-28T01:39:47.723Z,97774.19
2024-03-28T01:42:14.379Z,97782.66
2024-03-28T01:44:40.540Z,97758.84
2024-03-28T01:47:25.472Z,97739.09
2024-03-28T01:49:54.278Z,97735.66
2024-03-28T01:52:20.581Z,97729.00
2024-03-28T01:54:47.079Z,97732.28
2024-03-28T01:57:15.105Z,97736.63
2024-03-28T01:59:42.551Z,97723.84
2024-03-28T02:02:08.685Z,97728.88
2024-03-28T02:04:35.323Z,97720.31
2024-03-28T02:07:01.883Z,97719.03
2024-03-28T02:09:28.531Z,97732.66
2024-03-28T02:11:55.083Z,97733.34
2024-03-28T02:14:21.321Z,97736.06
2024-03-28T02:16:47.477Z,97736.06
2024-03-28T02:19:14.008Z,97740.28
2024-03-28T02:21:40.164Z,97749.69
2024-03-28T02:24:07.424Z,97749.00
2024-03-28T02:26:33.926Z,97753.22
2024-03-28T02:29:00.067Z,97751.56
2024-03-28T02:31:26.281Z,97756.75
2024-03-28T02:33:52.756Z,97746.41
2024-03-28T02:36:18.903Z,97748.16
2024-03-28T02:38:45.022Z,97738.66
2024-03-28T02:41:12.063Z,97735.13
2024-03-28T02:43:38.155Z,97730.91
2024-03-28T02:46:04.217Z,97730.06
2024-03-28T02:48:30.781Z,97737.13
2024-03-28T02:50:56.843Z,97739.25
2024-03-28T02:53:22.996Z,97740.91
2024-03-28T02:55:50.928Z,97728.13
2024-03-28T02:58:17.681Z,97724.69
2024-03-28T03:00:43.769Z,97726.22
2024-03-28T03:03:10.157Z,97730.44
2024-03-28T03:05:36.224Z,97720.13
2024-03-28T03:08:02.496Z,97713.16
2024-03-28T03:10:28.919Z,97723.66
2024-03-28T03:12:55.015Z,97727.88
2024-03-28T03:15:21.846Z,97722.94
2024-03-28T03:17:48.220Z,97719.41
2024-03-28T03:20:14.783Z,97714.25
2024-03-28T03:22:49.123Z,97703.91
2024-03-28T03:25:25.065Z,97707.31
2024-03-28T03:28:09.513Z,97692.50
2024-03-28T03:30:54.849Z,97696.72
2024-03-28T03:33:39.363Z,97696.25
2024-03-28T03:36:06.171Z,97702.28
2024-03-28T03:38:32.577Z,97701.00
2024-03-28T03:41:00.242Z,97697.59
2024-03-28T03:43:26.597Z,97706.56
2024-03-28T03:45:53.404Z,97691.84
2024-03-28T03:48:19.268Z,97690.00
2024-03-28T03:50:45.644Z,97687.06
2024-03-28T03:53:11.741Z,97683.53
2024-03-28T03:55:37.837Z,97681.75
2024-03-28T03:58:04.535Z,97681.22
2024-03-28T04:00:30.400Z,97672.63
2024-03-28T04:02:57.257Z,97659.59
2024-03-28T04:05:23.578Z,97645.03
2024-03-28T04:07:50.564Z,97635.66
2024-03-28T04:10:16.745Z,97627.91
2024-03-28T04:12:43.130Z,97624.47
2024-03-28T04:15:09.423Z,97609.91
2024-03-28T04:17:35.584Z,97599.47
2024-03-28T04:20:03.649Z,97589.00
2024-03-28T04:22:29.750Z,97589.84
2024-03-28T04:24:56.398Z,97587.25
2024-03-28T04:27:22.881Z,97578.22
2024-03-28T04:29:56.053Z,97592.91
2024-03-28T04:32:27.116Z,97599.03
2024-03-28T04:34:53.411Z,97582.72
2024-03-28T04:37:20.202Z,97587.06
2024-03-28T04:39:46.337Z,97594.38
2024-03-28T04:42:12.386Z,97590.03
2024-03-28T04:44:38.489Z,97568.53
2024-03-28T04:47:04.959Z,97557.53
2024-03-28T04:49:33.789Z,97557.66
2024-03-28T04:52:00.961Z,97573.16
2024-03-28T04:54:28.023Z,97562.13
2024-03-28T04:56:54.083Z,97558.84
2024-03-28T04:59:20.138Z,97553.81
2024-03-28T05:01:46.492Z,97554.91
2024-03-28T05:04:12.591Z,97553.38
2024-03-28T05:06:38.691Z,97559.72
2024-03-28T05:09:08.995Z,97560.94
2024-03-28T05:11:35.768Z,97551.78
2024-03-28T05:14:01.695Z,97565.09
2024-03-28T05:16:28.815Z,97560.78
2024-03-28T05:18:54.996Z,97551.38
2024-03-28T05:21:21.078Z,97557.50
2024-03-28T05:23:48.189Z,97561.28
2024-03-28T05:26:14.312Z,97558.00
2024-03-28T05:28:41.076Z,97548.72
2024-03-28T05:31:14.208Z,97549.47
2024-03-28T05:33:40.381Z,97536.56
2024-03-28T05:36:06.845Z,97534.94
2024-03-28T05:38:33.258Z,97525.44
2024-03-28T05:40:59.396Z,97514.16
2024-03-28T05:43:25.546Z,97506.16
2024-03-28T05:45:52.541Z,97499.56
2024-03-28T05:48:18.771Z,97500.00
2024-03-28T05:50:44.849Z,97503.97
2024-03-28T05:53:11.340Z,97499.34
2024-03-28T05:55:37.408Z,97502.38
2024-03-28T05:58:04.079Z,97488.38
2024-03-28T06:00:31.335Z,97497.50
2024-03-28T06:02:58.131Z,97495.50
2024-03-28T06:05:24.127Z,97501.47
2024-03-28T06:07:50.438Z,97500.84
2024-03-28T06:10:16.893Z,97503.00
2024-03-28T06:12:42.986Z,97492.44
2024-03-28T06:15:10.235Z,97495.56
2024-03-28T06:17:36.402Z,97502.09
2024-03-28T06:20:03.750Z,97511.38
2024-03-28T06:22:30.167Z,97493.72
2024-03-28T06:24:56.344Z,97491.56
2024-03-28T06:27:22.780Z,97512.09
2024-03-28T06:29:51.965Z,97494.94
2024-03-28T06:32:25.066Z,97503.97
2024-03-28T06:34:51.933Z,97511.31
2024-03-28T06:37:19.148Z,97498.69
2024-03-28T06:39:45.740Z,97505.25
2024-03-28T06:42:12.118Z,97508.25
2024-03-28T06:44:38.290Z,97519.81
2024-03-28T06:47:05.385Z,97516.84
2024-03-28T06:49:31.860Z,97511.16
2024-03-28T06:51:57.973Z,97507.06
2024-03-28T06:54:24.730Z,97501.91
2024-03-28T06:56:51.070Z,97507.38
2024-03-28T06:59:17.229Z,97505.88
2024-03-28T07:01:43.402Z,97502.84
2024-03-28T07:04:09.778Z,97512.78
2024-03-28T07:06:36.157Z,97511.72
2024-03-28T07:09:02.299Z,97505.75
2024-03-28T07:11:29.782Z,97514.03
2024-03-28T07:13:55.943Z,97523.19
2024-03-28T07:16:22.178Z,97521.00
2024-03-28T07:18:48.592Z,97520.97
2024-03-28T07:21:14.698Z,97526.41
2024-03-28T07:23:41.373Z,97520.81
2024-03-28T07:26:07.795Z,97526.22
2024-03-28T07:28:34.574Z,97524.81
2024-03-28T07:31:00.735Z,97533.09
2024-03-28T07:33:27.148Z,97538.78
2024-03-28T07:35:53.283Z,97548.59
2024-03-28T07:38:19.435Z,97542.16
2024-03-28T07:40:46.949Z,97541.47
2024-03-28T07:43:13.131Z,97546.38
2024-03-28T07:45:39.990Z,97543.53
2024-03-28T07:48:07.014Z,97539.94
2024-03-28T07:50:33.106Z,97550.13
2024-03-28T07:52:59.176Z,97540.66
2024-03-28T07:55:25.637Z,97551.25
2024-03-28T07:57:51.672Z,97546.66
2024-03-28T08:00:18.505Z,97532.34
2024-03-28T08:02:47.418Z,97549.75
2024-03-28T08:05:13.621Z,97537.63
2024-03-28T08:07:39.810Z,97539.06
2024-03-28T08:10:09.593Z,97551.41
2024-03-28T08:12:35.794Z,97548.69
2024-03-28T08:15:03.011Z,97542.00
2024-03-28T08:17:30.771Z,97547.75
2024-03-28T08:19:57.894Z,97553.41
2024-03-28T08:22:23.983Z,97556.41
2024-03-28T08:24:51.051Z,97558.31
2024-03-28T08:27:17.427Z,97568.16
2024-03-28T08:29:43.556Z,97563.50
2024-03-28T08:32:09.958Z,97566.06
2024-03-28T08:34:36.168Z,97568.09
2024-03-28T08:37:03.954Z,97572.84
2024-03-28T08:39:30.561Z,97574.59
2024-03-28T08:41:57.034Z,97578.22
2024-03-28T08:44:23.208Z,97576.94
2024-03-28T08:46:49.642Z,97577.00
2024-03-28T08:49:17.106Z,97583.47
2024-03-28T08:51:43.271Z,97577.56
2024-03-28T08:54:13.344Z,97590.28
2024-03-28T08:56:40.399Z,97595.38
2024-03-28T08:59:06.703Z,97586.50
2024-03-28T09:01:33.129Z,97595.34
2024-03-28T09:03:59.213Z,97598.84
2024-03-28T09:06:25.391Z,97600.50
2024-03-28T09:08:51.783Z,97594.75
2024-03-28T09:11:18.540Z,97604.56
2024-03-28T09:13:44.696Z,97609.75
2024-03-28T09:16:11.110Z,97602.69
2024-03-28T09:18:37.217Z,97606.47
2024-03-28T09:21:08.681Z,97612.81
2024-03-28T09:23:35.055Z,97615.94
2024-03-28T09:26:01.288Z,97616.75
2024-03-28T09:28:28.278Z,97616.28
2024-03-28T09:30:54.767Z,97621.34
2024-03-28T09:33:20.936Z,97614.41
2024-03-28T09:35:47.131Z,97616.44
2024-03-28T09:38:13.792Z,97626.31
2024-03-28T09:40:49.042Z,97628.41
2024-03-28T09:43:15.445Z,97618.19
2024-03-28T09:45:42.822Z,97611.97
2024-03-28T09:48:09.535Z,97616.19
2024-03-28T09:50:36.643Z,97618.88
2024-03-28T09:53:04.879Z,97621.75
2024-03-28T09:55:31.273Z,97628.06
2024-03-28T09:58:02.338Z,97624.28
2024-03-28T10:00:29.279Z,97631.78
2024-03-28T10:03:00.397Z,97639.28
2024-03-28T10:05:27.043Z,97640.69
2024-03-28T10:07:53.508Z,97652.44
2024-03-28T10:10:20.719Z,97649.63
2024-03-28T10:12:53.107Z,97653.34
2024-03-28T10:15:20.145Z,97657.38
2024-03-28T10:17:47.090Z,97652.66
2024-03-28T10:20:15.372Z,97664.06
2024-03-28T10:22:44.605Z,97669.53
2024-03-28T10:25:18.298Z,97672.56
2024-03-28T10:27:44.567Z,97676.22
2024-03-28T10:30:12.598Z,97676.47
2024-03-28T10:32:39.650Z,97675.84
2024-03-28T10:35:10.215Z,97680.66
2024-03-28T10:37:49.498Z,97692.88
2024-03-28T10:40:23.325Z,97703.59
2024-03-28T10:42:50.155Z,97705.13
2024-03-28T10:45:16.452Z,97707.91
2024-03-28T10:47:43.753Z,97720.28
2024-03-28T10:50:14.386Z,97713.34
2024-03-28T10:52:45.203Z,97714.72
2024-03-28T10:55:12.563Z,97721.19
2024-03-28T10:57:42.083Z,97726.91
2024-03-28T11:00:10.312Z,97726.72
2024-03-28T11:02:38.203Z,97726.81
2024-03-28T11:05:06.914Z,97733.66
2024-03-28T11:07:34.874Z,97748.91
2024-03-28T11:10:01.837Z,97738.47
2024-03-28T11:12:28.846Z,97751.06
2024-03-28T11:14:55.873Z,97747.00
2024-03-28T11:17:22.270Z,97750.28
2024-03-28T11:20:00.786Z,97760.63
2024-03-28T11:22:27.025Z,97770.72
2024-03-28T11:24:53.121Z,97784.34
2024-03-28T11:27:24.396Z,97790.84
2024-03-28T11:29:53.611Z,97799.97
2024-03-28T11:32:23.512Z,97811.75
2024-03-28T11:34:50.079Z,97811.97
2024-03-28T11:37:22.020Z,97808.09
2024-03-28T11:39:48.736Z,97809.56
2024-03-28T11:42:25.695Z,97819.69
2024-03-28T11:45:04.198Z,97829.50
2024-03-28T11:47:32.531Z,97820.72
2024-03-28T11:50:05.180Z,97822.13
2024-03-28T11:52:31.515Z,97827.59
2024-03-28T11:54:57.637Z,97827.94
2024-03-28T11:57:24.000Z,97836.25
2024-03-28T11:59:50.812Z,97830.94
2024-03-28T12:02:17.695Z,97833.47
2024-03-28T12:04:44.110Z,97830.19
2024-03-28T12:07:10.949Z,97835.84
2024-03-28T12:09:38.998Z,97835.06
2024-03-28T12:12:06.878Z,97848.09
2024-03-28T12:14:33.427Z,97843.63
2024-03-28T12:16:59.372Z,97848.25
2024-03-28T12:19:26.937Z,97852.69
2024-03-28T12:21:53.183Z,97857.34
2024-03-28T12:24:19.484Z,97866.34
2024-03-28T12:26:46.179Z,97858.81
2024-03-28T12:29:13.237Z,97862.94
2024-03-28T12:31:39.375Z,97849.22
2024-03-28T12:34:10.416Z,97860.09
2024-03-28T12:36:37.523Z,97861.41
2024-03-28T12:39:05.053Z,97860.00
2024-03-28T12:41:31.533Z,97873.19
2024-03-28T12:43:58.823Z,97879.25
2024-03-28T12:46:25.207Z,97850.88
2024-03-28T12:48:52.539Z,97868.47
2024-03-28T12:51:18.906Z,97878.00
2024-03-28T12:53:45.774Z,97870.22
2024-03-28T12:56:12.150Z,97867.03
2024-03-28T12:58:38.285Z,97879.19
2024-03-28T13:01:04.548Z,97869.94
2024-03-28T13:03:32.910Z,97879.75
2024-03-28T13:05:58.973Z,97885.16
2024-03-28T13:08:26.071Z,97884.66
2024-03-28T13:10:53.949Z,97887.19
2024-03-28T13:13:20.144Z,97900.81
2024-03-28T13:15:46.296Z,97897.94
2024-03-28T13:18:12.701Z,97919.47
2024-03-28T13:20:38.583Z,97911.25
2024-03-28T13:23:04.831Z,97904.41
2024-03-28T13:25:32.628Z,97931.72
2024-03-28T13:28:01.236Z,97936.34
2024-03-28T13:30:27.390Z,97946.16
2024-03-28T13:32:53.851Z,97932.53
2024-03-28T13:35:19.747Z,97942.84
2024-03-28T13:37:45.871Z,97951.59
2024-03-28T13:40:12.664Z,97947.06
2024-03-28T13:42:38.841Z,97952.03
2024-03-28T13:45:08.740Z,97961.19
2024-03-28T13:47:35.093Z,97959.75
2024-03-28T13:50:01.216Z,97965.63
2024-03-28T13:52:27.411Z,97969.84
2024-03-28T13:54:53.842Z,97985.75
2024-03-28T13:57:19.763Z,97989.63
2024-03-28T13:59:45.936Z,97981.16
2024-03-28T14:02:13.351Z,97996.34
2024-03-28T14:04:39.517Z,97993.06
2024-03-28T14:07:05.806Z,97980.47
2024-03-28T14:09:32.361Z,97993.97
2024-03-28T14:11:58.514Z,98001.41
2024-03-28T14:14:24.616Z,97990.38
2024-03-28T14:16:51.073Z,98002.72
2024-03-28T14:19:17.947Z,98008.19
2024-03-28T14:21:44.021Z,98006.53
2024-03-28T14:24:10.400Z,98019.94
2024-03-28T14:26:36.335Z,98019.38
2024-03-28T14:29:02.475Z,98022.56
2024-03-28T14:31:28.863Z,98022.94
2024-03-28T14:33:57.085Z,98038.19
2024-03-28T14:36:24.237Z,98041.59
2024-03-28T14:38:50.605Z,98034.47
2024-03-28T14:41:16.681Z,98023.88
2024-03-28T14:43:44.444Z,98033.78
2024-03-28T14:46:12.035Z,98033.66
2024-03-28T14:48:38.385Z,98055.38
2024-03-28T14:51:06.102Z,98030.06
2024-03-28T14:53:33.340Z,98035.34
2024-03-28T14:56:00.629Z,98059.31
2024-03-28T14:58:34.347Z,98054.91
2024-03-28T15:01:11.709Z,98056.22
2024-03-28T15:03:37.805Z,98060.16
2024-03-28T15:06:04.319Z,98054.44
2024-03-28T15:08:30.781Z,98064.31
2024-03-28T15:11:00.503Z,98053.78
2024-03-28T15:13:26.618Z,98071.59
2024-03-28T15:15:52.995Z,98073.47
2024-03-28T15:18:19.122Z,98075.66
2024-03-28T15:20:45.275Z,98069.78
2024-03-28T15:23:11.804Z,98081.56
2024-03-28T15:25:37.927Z,98075.09
2024-03-28T15:28:05.862Z,98083.47
2024-03-28T15:30:32.809Z,98094.97
2024-03-28T15:32:58.950Z,98101.56
2024-03-28T15:35:25.086Z,98098.56
2024-03-28T15:37:51.659Z,98095.28
2024-03-28T15:40:20.591Z,98103.78
2024-03-28T15:42:46.999Z,98113.34
2024-03-28T15:45:14.168Z,98098.13
2024-03-28T15:47:44.100Z,98110.47
2024-03-28T15:50:11.456Z,98104.44
2024-03-28T15:52:37.837Z,98121.16
2024-03-28T15:55:04.588Z,98113.91
2024-03-28T15:57:30.717Z,98102.53
2024-03-28T15:59:58.192Z,98117.47
2024-03-28T16:02:25.020Z,98115.00
2024-03-28T16:04:51.133Z,98120.91
2024-03-28T16:07:17.738Z,98130.63
2024-03-28T16:09:44.624Z,98133.22
2024-03-28T16:12:10.956Z,98125.44
2024-03-28T16:14:37.424Z,98140.75
2024-03-28T16:17:05.250Z,98159.78
2024-03-28T16:19:32.747Z,98161.13
2024-03-28T16:21:59.141Z,98137.19
2024-03-28T16:24:26.501Z,98165.06
2024-03-28T16:26:52.691Z,98153.81
2024-03-28T16:29:19.114Z,98143.25
2024-03-28T16:31:45.299Z,98148.16
2024-03-28T16:34:11.439Z,98145.56
2024-03-28T16:36:38.627Z,98149.91
2024-03-28T16:39:06.566Z,98163.16
2024-03-28T16:41:32.682Z,98154.84
2024-03-28T16:43:59.203Z,98149.28
2024-03-28T16:46:25.261Z,98159.41
2024-03-28T16:48:51.359Z,98153.13
2024-03-28T16:51:17.882Z,98157.94
2024-03-28T16:53:44.506Z,98146.31
2024-03-28T16:56:10.877Z,98151.78
2024-03-28T16:58:37.382Z,98154.81
2024-03-28T17:01:03.547Z,98161.09
2024-03-28T17:03:29.886Z,98154.53
2024-03-28T17:05:56.712Z,98161.91
2024-03-28T17:08:22.881Z,98171.50
2024-03-28T17:10:51.206Z,98170.66
2024-03-28T17:13:19.030Z,98161.75
2024-03-28T17:15:54.202Z,98163.97
2024-03-28T17:18:20.943Z,98162.59
2024-03-28T17:20:47.210Z,98169.03
2024-03-28T17:23:13.325Z,98167.13
2024-03-28T17:25:40.081Z,98171.78
2024-03-28T17:28:07.168Z,98168.91
2024-03-28T17:30:35.099Z,98171.06
2024-03-28T17:33:01.594Z,98174.22
2024-03-28T17:35:27.875Z,98170.13
2024-03-28T17:37:54.018Z,98161.63
2024-03-28T17:40:20.431Z,98161.63
2024-03-28T17:42:46.567Z,98165.97
2024-03-28T17:45:13.483Z,98161.75
2024-03-28T17:47:40.365Z,98164.88
2024-03-28T17:50:07.696Z,98175.25
2024-03-28T17:52:34.212Z,98177.69
2024-03-28T17:55:00.400Z,98181.91
2024-03-28T17:57:26.606Z,98184.59
2024-03-28T17:59:52.654Z,98182.53
2024-03-28T18:02:20.209Z,98189.50
2024-03-28T18:04:47.374Z,98191.50
2024-03-28T18:07:15.193Z,98199.09
2024-03-28T18:09:42.148Z,98183.91
2024-03-28T18:12:08.604Z,98208.59
2024-03-28T18:14:35.071Z,98195.47
2024-03-28T18:17:01.467Z,98196.00
2024-03-28T18:19:28.326Z,98203.34
2024-03-28T18:21:55.105Z,98203.84
2024-03-28T18:24:22.603Z,98213.75
2024-03-28T18:26:48.807Z,98212.13
2024-03-28T18:29:15.355Z,98208.38
2024-03-28T18:31:41.951Z,98207.13
2024-03-28T18:34:07.866Z,98208.69
2024-03-28T18:36:34.987Z,98213.75
2024-03-28T18:39:01.553Z,98199.75
2024-03-28T18:41:27.746Z,98212.22
2024-03-28T18:43:54.029Z,98215.31
2024-03-28T18:46:20.579Z,98228.41
2024-03-28T18:48:50.775Z,98231.72
2024-03-28T18:51:16.934Z,98231.13
2024-03-28T18:53:44.005Z,98240.09
2024-03-28T18:56:10.259Z,98243.38
2024-03-28T18:58:36.634Z,98245.75
2024-03-28T19:01:03.580Z,98250.94
2024-03-28T19:03:29.760Z,98258.47
2024-03-28T19:05:55.980Z,98262.16
2024-03-28T19:08:22.603Z,98262.72
2024-03-28T19:10:50.327Z,98267.66
2024-03-28T19:13:16.673Z,98273.28
2024-03-28T19:15:45.632Z,98280.97
2024-03-28T19:18:12.470Z,98285.06
2024-03-28T19:20:39.445Z,98281.91
2024-03-28T19:23:06.177Z,98288.25
2024-03-28T19:25:33.597Z,98294.59
2024-03-28T19:28:01.491Z,98300.59
2024-03-28T19:30:28.483Z,98307.66
2024-03-28T19:32:54.894Z,98318.63
2024-03-28T19:35:21.426Z,98315.22
2024-03-28T19:37:50.884Z,98312.13
2024-03-28T19:40:18.442Z,98322.50
2024-03-28T19:42:44.638Z,98327.69
2024-03-28T19:45:11.904Z,98328.50
2024-03-28T19:47:38.032Z,98320.00
2024-03-28T19:50:05.223Z,98335.56
2024-03-28T19:52:31.922Z,98333.69
2024-03-28T19:55:00.619Z,98327.69
2024-03-28T19:57:28.977Z,98333.19
2024-03-28T19:59:55.939Z,98333.31
2024-03-28T20:02:23.739Z,98325.16
2024-03-28T20:04:58.065Z,98331.28
2024-03-28T20:07:24.465Z,98330.25
2024-03-28T20:09:50.948Z,98331.66
2024-03-28T20:12:18.179Z,98334.47
2024-03-28T20:14:44.271Z,98333.78
2024-03-28T20:17:10.955Z,98334.84
2024-03-28T20:19:37.822Z,98333.13
2024-03-28T20:22:04.420Z,98335.94
2024-03-28T20:24:30.320Z,98333.75
2024-03-28T20:26:56.733Z,98336.78
2024-03-28T20:29:22.879Z,98341.28
2024-03-28T20:31:49.027Z,98347.06
2024-03-28T20:34:15.436Z,98352.13
2024-03-28T20:36:44.605Z,98347.88
2024-03-28T20:39:10.867Z,98357.06
2024-03-28T20:41:45.280Z,98356.47
2024-03-28T20:44:18.067Z,98368.25
2024-03-28T20:46:44.501Z,98369.91
2024-03-28T20:49:10.855Z,98360.72
2024-03-28T20:51:37.012Z,98370.75
2024-03-28T20:54:04.442Z,98374.63
2024-03-28T20:56:31.031Z,98383.81
2024-03-28T20:58:57.224Z,98383.00
2024-03-28T21:01:23.874Z,98370.84
2024-03-28T21:03:49.988Z,98373.69
2024-03-28T21:06:30.973Z,98392.53
2024-03-28T21:09:15.435Z,98394.44
2024-03-28T21:11:43.538Z,98408.94
2024-03-28T21:14:11.014Z,98411.63
2024-03-28T21:16:37.226Z,98412.47
2024-03-28T21:19:03.670Z,98416.34
2024-03-28T21:21:31.301Z,98428.38
2024-03-28T21:23:57.506Z,98425.06
2024-03-28T21:26:23.905Z,98419.09
2024-03-28T21:28:50.761Z,98424.38
2024-03-28T21:31:16.963Z,98421.78
2024-03-28T21:33:43.693Z,98420.03
2024-03-28T21:36:12.937Z,98434.97
2024-03-28T21:38:39.202Z,98436.75
2024-03-28T21:41:08.606Z,98443.00
2024-03-28T21:43:36.409Z,98432.75
2024-03-28T21:46:04.120Z,98438.28
2024-03-28T21:48:30.659Z,98438.50
2024-03-28T21:50:58.686Z,98448.41
2024-03-28T21:53:24.764Z,98446.06
2024-03-28T21:55:58.237Z,98429.78
2024-03-28T21:58:24.479Z,98436.84
2024-03-28T22:00:50.547Z,98443.13
2024-03-28T22:03:17.583Z,98443.94
2024-03-28T22:05:52.807Z,98454.31
2024-03-28T22:08:19.165Z,98453.34
2024-03-28T22:10:45.434Z,98452.41
2024-03-28T22:13:11.797Z,98441.09
2024-03-28T22:15:38.196Z,98461.97
2024-03-28T22:18:04.631Z,98455.84
2024-03-28T22:20:31.398Z,98460.44
2024-03-28T22:22:57.778Z,98453.25
2024-03-28T22:25:24.322Z,98462.56
2024-03-28T22:27:50.478Z,98467.16
2024-03-28T22:30:17.088Z,98464.69
2024-03-28T22:32:43.454Z,98462.66
2024-03-28T22:35:09.603Z,98471.97
2024-03-28T22:37:36.647Z,98472.91
2024-03-28T22:40:03.712Z,98468.78
2024-03-28T22:42:29.999Z,98465.00
2024-03-28T22:44:56.659Z,98470.19
2024-03-28T22:47:22.702Z,98462.41
2024-03-28T22:49:51.149Z,98469.38
2024-03-28T22:52:17.834Z,98473.13
2024-03-28T22:54:44.364Z,98465.59
2024-03-28T22:57:10.478Z,98472.28
2024-03-28T22:59:36.962Z,98470.88
2024-03-28T23:02:03.924Z,98460.63
2024-03-28T23:04:30.199Z,98466.53
2024-03-28T23:06:56.581Z,98469.13
2024-03-28T23:09:22.897Z,98474.53
2024-03-28T23:11:49.720Z,98480.66
2024-03-28T23:14:16.276Z,98474.03
2024-03-28T23:16:42.739Z,98479.94
2024-03-28T23:19:09.015Z,98469.94
2024-03-28T23:21:36.792Z,98469.00
2024-03-28T23:24:03.021Z,98467.44
2024-03-28T23:26:29.399Z,98462.50
2024-03-28T23:28:56.724Z,98467.91
2024-03-28T23:31:22.799Z,98466.66
2024-03-28T23:33:49.010Z,98455.06
2024-03-28T23:36:15.360Z,98464.59
2024-03-28T23:38:41.497Z,98462.00
2024-03-28T23:41:07.621Z,98464.38
2024-03-28T23:43:34.730Z,98463.19
2024-03-28T23:46:01.511Z,98463.56
2024-03-28T23:48:27.561Z,98456.09
2024-03-28T23:50:53.995Z,98454.44
2024-03-28T23:53:20.247Z,98453.94
2024-03-28T23:55:46.458Z,98453.00
2024-03-28T23:58:12.813Z,98458.19
